createdAt,value
2022-12-23T00:00:11.403Z,4.60
2022-12-23T00:02:38.620Z,4.65
2022-12-23T00:05:06.451Z,4.66
2022-12-23T00:07:33.125Z,4.72
2022-12-23T00:09:59.764Z,4.70
2022-12-23T00:12:45.019Z,4.72
2022-12-23T00:15:12.626Z,4.66
2022-12-23T00:17:44.952Z,4.63
2022-12-23T00:20:14.635Z,4.63
2022-12-23T00:23:00.406Z,4.62
2022-12-23T00:25:42.207Z,4.55
2022-12-23T00:28:20.814Z,4.51
2022-12-23T00:31:02.485Z,4.47
2022-12-23T00:33:31.883Z,4.46
2022-12-23T00:35:58.633Z,4.46
2022-12-23T00:38:44.118Z,4.39
2022-12-23T00:41:31.447Z,4.33
2022-12-23T00:43:58.642Z,4.27
2022-12-23T00:46:25.436Z,4.24
2022-12-23T00:49:10.653Z,4.19
2022-12-23T00:51:37.178Z,4.15
2022-12-23T00:54:04.210Z,4.13
2022-12-23T00:56:33.749Z,4.09
2022-12-23T00:59:00.701Z,4.07
2022-12-23T01:01:46.188Z,4.05
2022-12-23T01:04:49.640Z,4.04
2022-12-23T01:07:16.284Z,4.07
2022-12-23T01:09:42.932Z,4.10
2022-12-23T01:12:09.502Z,4.16
2022-12-23T01:14:36.534Z,4.22
2022-12-23T01:17:03.563Z,4.25
2022-12-23T01:19:30.238Z,4.26
2022-12-23T01:21:56.791Z,4.28
2022-12-23T01:24:23.557Z,4.28
2022-12-23T01:26:50.113Z,4.26
2022-12-23T01:29:16.658Z,4.25
2022-12-23T01:31:43.267Z,4.22
2022-12-23T01:34:10.523Z,4.23
2022-12-23T01:36:37.540Z,4.23
2022-12-23T01:39:04.327Z,4.20
2022-12-23T01:41:51.773Z,4.18
2022-12-23T01:44:46.012Z,4.18
2022-12-23T01:47:18.906Z,4.16
2022-12-23T01:49:46.459Z,4.15
2022-12-23T01:52:14.302Z,4.13
2022-12-23T01:54:41.586Z,4.11
2022-12-23T01:57:08.212Z,4.10
2022-12-23T01:59:53.533Z,4.10
2022-12-23T02:02:40.073Z,4.07
2022-12-23T02:05:08.309Z,4.04
2022-12-23T02:07:54.481Z,4.02
2022-12-23T02:10:26.795Z,3.99
2022-12-23T02:13:11.472Z,3.99
2022-12-23T02:16:13.913Z,3.95
2022-12-23T02:18:55.447Z,3.87
2022-12-23T02:21:40.704Z,3.80
2022-12-23T02:24:31.357Z,3.70
2022-12-23T02:27:13.131Z,3.61
2022-12-23T02:29:51.544Z,3.54
2022-12-23T02:32:27.350Z,3.47
2022-12-23T02:35:25.400Z,3.43
2022-12-23T02:38:04.042Z,3.40
2022-12-23T02:40:51.583Z,3.36
2022-12-23T02:43:47.526Z,3.38
2022-12-23T02:46:28.237Z,3.36
2022-12-23T02:49:03.359Z,3.38
2022-12-23T02:51:36.632Z,3.34
2022-12-23T02:54:08.735Z,3.31
2022-12-23T02:56:37.452Z,3.30
2022-12-23T02:59:12.232Z,3.30
2022-12-23T03:01:41.415Z,3.30
2022-12-23T03:04:08.912Z,3.31
2022-12-23T03:06:40.598Z,3.33
2022-12-23T03:09:07.497Z,3.31
2022-12-23T03:11:52.920Z,3.31
2022-12-23T03:14:41.363Z,3.33
2022-12-23T03:17:10.876Z,3.29
2022-12-23T03:19:45.270Z,3.32
2022-12-23T03:22:29.843Z,3.34
2022-12-23T03:25:05.825Z,3.36
2022-12-23T03:27:48.515Z,3.37
2022-12-23T03:30:18.656Z,3.38
2022-12-23T03:32:49.819Z,3.41
2022-12-23T03:35:20.248Z,3.41
2022-12-23T03:37:50.918Z,3.45
2022-12-23T03:40:28.173Z,3.47
2022-12-23T03:43:02.190Z,3.42
2022-12-23T03:45:40.309Z,3.40
2022-12-23T03:48:18.991Z,3.35
2022-12-23T03:50:48.665Z,3.35
2022-12-23T03:53:38.097Z,3.36
2022-12-23T03:56:17.119Z,3.38
2022-12-23T03:58:51.272Z,3.35
2022-12-23T04:01:42.557Z,3.35
2022-12-23T04:04:24.200Z,3.34
2022-12-23T04:07:22.811Z,3.30
2022-12-23T04:09:52.568Z,3.28
2022-12-23T04:12:21.410Z,3.27
2022-12-23T04:14:49.286Z,3.24
2022-12-23T04:17:17.348Z,3.21
2022-12-23T04:19:48.154Z,3.18
2022-12-23T04:22:16.046Z,3.18
2022-12-23T04:24:43.500Z,3.16
2022-12-23T04:27:13.086Z,3.11
2022-12-23T04:29:39.753Z,3.19
2022-12-23T04:32:07.605Z,3.21
2022-12-23T04:34:34.357Z,3.20
2022-12-23T04:37:01.135Z,3.17
2022-12-23T04:39:27.900Z,3.12
2022-12-23T04:41:54.689Z,3.13
2022-12-23T04:44:21.305Z,3.15
2022-12-23T04:46:47.926Z,3.14
2022-12-23T04:49:14.525Z,3.10
2022-12-23T04:51:41.064Z,3.13
2022-12-23T04:54:07.678Z,3.17
2022-12-23T04:56:34.204Z,3.23
2022-12-23T04:59:02.372Z,3.21
2022-12-23T05:01:29.765Z,3.16
2022-12-23T05:03:56.461Z,3.12
2022-12-23T05:06:23.091Z,3.11
2022-12-23T05:08:49.712Z,3.04
2022-12-23T05:11:16.242Z,3.03
2022-12-23T05:13:42.913Z,3.04
2022-12-23T05:16:09.573Z,3.04
2022-12-23T05:18:36.144Z,2.97
2022-12-23T05:21:02.770Z,2.90
2022-12-23T05:23:29.363Z,2.87
2022-12-23T05:25:55.995Z,2.84
2022-12-23T05:28:23.492Z,2.80
2022-12-23T05:30:57.000Z,2.76
2022-12-23T05:33:23.603Z,2.73
2022-12-23T05:35:50.272Z,2.70
2022-12-23T05:38:16.810Z,2.67
2022-12-23T05:40:43.340Z,2.63
2022-12-23T05:43:09.932Z,2.62
2022-12-23T05:45:36.757Z,2.57
2022-12-23T05:48:03.404Z,2.57
2022-12-23T05:50:30.060Z,2.64
2022-12-23T05:52:57.718Z,2.62
2022-12-23T05:55:26.235Z,2.58
2022-12-23T05:57:53.088Z,2.55
2022-12-23T06:00:20.552Z,2.55
2022-12-23T06:02:53.296Z,2.51
2022-12-23T06:05:20.570Z,2.51
2022-12-23T06:07:47.124Z,2.53
2022-12-23T06:10:13.700Z,2.49
2022-12-23T06:12:40.284Z,2.42
2022-12-23T06:15:07.703Z,2.41
2022-12-23T06:17:34.312Z,2.36
2022-12-23T06:20:01.050Z,2.33
2022-12-23T06:22:27.655Z,2.31
2022-12-23T06:24:54.245Z,2.31
2022-12-23T06:27:20.878Z,2.28
2022-12-23T06:29:48.092Z,2.27
2022-12-23T06:32:14.962Z,2.26
2022-12-23T06:34:41.669Z,2.23
2022-12-23T06:37:08.400Z,2.21
2022-12-23T06:39:35.440Z,2.19
2022-12-23T06:42:03.270Z,2.18
2022-12-23T06:44:29.910Z,2.15
2022-12-23T06:46:56.486Z,2.17
2022-12-23T06:49:23.025Z,2.17
2022-12-23T06:51:49.616Z,2.19
2022-12-23T06:54:16.169Z,2.19
2022-12-23T06:56:42.948Z,2.21
2022-12-23T06:59:09.491Z,2.22
2022-12-23T07:01:36.163Z,2.21
2022-12-23T07:04:03.159Z,2.28
2022-12-23T07:06:29.846Z,2.37
2022-12-23T07:08:56.419Z,2.37
2022-12-23T07:11:22.980Z,2.38
2022-12-23T07:13:49.684Z,2.48
2022-12-23T07:16:16.291Z,2.45
2022-12-23T07:18:42.982Z,2.37
2022-12-23T07:21:19.718Z,2.33
2022-12-23T07:23:51.325Z,2.26
2022-12-23T07:26:17.913Z,2.23
2022-12-23T07:28:48.752Z,2.20
2022-12-23T07:31:15.771Z,2.19
2022-12-23T07:33:42.560Z,2.18
2022-12-23T07:36:09.548Z,2.18
2022-12-23T07:38:36.372Z,2.16
2022-12-23T07:41:03.183Z,2.17
2022-12-23T07:43:29.840Z,2.17
2022-12-23T07:46:00.470Z,2.16
2022-12-23T07:48:27.512Z,2.14
2022-12-23T07:51:00.634Z,2.14
2022-12-23T07:53:27.279Z,2.15
2022-12-23T07:55:56.822Z,2.15
2022-12-23T07:58:24.202Z,2.16
2022-12-23T08:00:50.777Z,2.14
2022-12-23T08:03:17.827Z,2.14
2022-12-23T08:05:44.537Z,2.15
2022-12-23T08:08:11.152Z,2.19
2022-12-23T08:10:41.433Z,2.24
2022-12-23T08:13:11.183Z,2.28
2022-12-23T08:15:37.767Z,2.32
2022-12-23T08:18:04.437Z,2.33
2022-12-23T08:20:31.011Z,2.35
2022-12-23T08:22:57.556Z,2.41
2022-12-23T08:25:24.133Z,2.44
2022-12-23T08:27:51.392Z,2.40
2022-12-23T08:30:18.913Z,2.40
2022-12-23T08:32:45.499Z,2.38
2022-12-23T08:35:12.103Z,2.37
2022-12-23T08:37:38.754Z,2.38
2022-12-23T08:40:05.962Z,2.34
2022-12-23T08:42:32.552Z,2.33
2022-12-23T08:45:00.057Z,2.35
2022-12-23T08:47:26.644Z,2.36
2022-12-23T08:49:53.246Z,2.38
2022-12-23T08:52:22.147Z,2.39
2022-12-23T08:54:48.719Z,2.40
2022-12-23T08:57:15.293Z,2.43
2022-12-23T08:59:42.097Z,2.47
2022-12-23T09:02:11.790Z,2.48
2022-12-23T09:04:38.477Z,2.46
2022-12-23T09:07:05.983Z,2.50
2022-12-23T09:09:32.595Z,2.54
2022-12-23T09:11:59.168Z,2.61
2022-12-23T09:14:25.751Z,2.64
2022-12-23T09:16:52.621Z,2.60
2022-12-23T09:19:20.495Z,2.57
2022-12-23T09:21:48.199Z,2.57
2022-12-23T09:24:14.828Z,2.53
2022-12-23T09:26:41.437Z,2.52
2022-12-23T09:29:08.013Z,2.51
2022-12-23T09:31:37.731Z,2.49
2022-12-23T09:34:05.500Z,2.47
2022-12-23T09:36:32.198Z,2.46
2022-12-23T09:38:59.280Z,2.46
2022-12-23T09:41:48.421Z,2.47
2022-12-23T09:44:41.762Z,2.50
2022-12-23T09:47:15.705Z,2.53
2022-12-23T09:50:00.601Z,2.57
2022-12-23T09:52:45.928Z,2.62
2022-12-23T09:55:15.304Z,2.57
2022-12-23T09:58:09.075Z,2.51
2022-12-23T10:00:42.800Z,2.48
2022-12-23T10:03:15.440Z,2.48
2022-12-23T10:05:57.178Z,2.48
2022-12-23T10:08:44.563Z,2.50
2022-12-23T10:11:21.208Z,2.47
2022-12-23T10:13:52.410Z,2.43
2022-12-23T10:16:25.787Z,2.39
2022-12-23T10:19:01.624Z,2.41
2022-12-23T10:21:52.466Z,2.46
2022-12-23T10:24:24.240Z,2.48
2022-12-23T10:26:58.093Z,2.45
2022-12-23T10:29:27.029Z,2.47
2022-12-23T10:32:17.585Z,2.44
2022-12-23T10:35:13.519Z,2.47
2022-12-23T10:38:17.572Z,2.47
2022-12-23T10:40:45.437Z,2.48
2022-12-23T10:43:18.035Z,2.48
2022-12-23T10:46:10.430Z,2.51
2022-12-23T10:48:36.953Z,2.55
2022-12-23T10:51:12.912Z,2.55
2022-12-23T10:53:47.631Z,2.60
2022-12-23T10:56:15.104Z,2.63
2022-12-23T10:58:44.876Z,2.65
2022-12-23T11:01:25.726Z,2.66
2022-12-23T11:04:32.496Z,2.71
2022-12-23T11:07:26.467Z,2.74
2022-12-23T11:10:08.086Z,2.78
2022-12-23T11:12:47.453Z,2.80
2022-12-23T11:15:37.818Z,2.85
2022-12-23T11:18:18.403Z,2.85
2022-12-23T11:21:01.282Z,2.85
2022-12-23T11:23:36.884Z,2.79
2022-12-23T11:26:10.050Z,2.81
2022-12-23T11:28:40.092Z,2.84
2022-12-23T11:31:12.284Z,2.85
2022-12-23T11:33:46.479Z,2.87
2022-12-23T11:36:12.988Z,2.89
2022-12-23T11:39:17.858Z,2.91
2022-12-23T11:41:50.333Z,2.91
2022-12-23T11:44:26.034Z,2.94
2022-12-23T11:46:52.790Z,2.95
2022-12-23T11:49:29.211Z,2.96
2022-12-23T11:52:12.046Z,2.99
2022-12-23T11:54:39.183Z,3.01
2022-12-23T11:57:19.004Z,3.05
2022-12-23T11:59:52.828Z,3.09
2022-12-23T12:02:40.744Z,3.13
2022-12-23T12:05:22.680Z,3.16
2022-12-23T12:07:51.301Z,3.18
2022-12-23T12:10:28.170Z,3.24
2022-12-23T12:13:26.673Z,3.28
2022-12-23T12:16:07.798Z,3.31
2022-12-23T12:18:35.309Z,3.36
2022-12-23T12:21:07.387Z,3.42
2022-12-23T12:23:39.688Z,3.44
2022-12-23T12:26:13.733Z,3.46
2022-12-23T12:28:43.463Z,3.49
2022-12-23T12:31:17.917Z,3.53
2022-12-23T12:33:54.102Z,3.53
2022-12-23T12:36:39.288Z,3.55
2022-12-23T12:39:17.297Z,3.56
2022-12-23T12:42:01.784Z,3.57
2022-12-23T12:44:46.228Z,3.60
2022-12-23T12:47:52.120Z,3.63
2022-12-23T12:50:19.329Z,3.63
2022-12-23T12:52:45.965Z,3.64
2022-12-23T12:55:28.700Z,3.66
2022-12-23T12:57:55.530Z,3.66
2022-12-23T13:00:24.303Z,3.65
2022-12-23T13:03:15.441Z,3.63
2022-12-23T13:06:15.216Z,3.61
2022-12-23T13:09:00.306Z,3.61
2022-12-23T13:11:49.811Z,3.63
2022-12-23T13:14:34.683Z,3.66
2022-12-23T13:17:20.879Z,3.68
2022-12-23T13:20:25.250Z,3.70
2022-12-23T13:23:06.355Z,3.73
2022-12-23T13:25:49.902Z,3.75
2022-12-23T13:28:41.899Z,3.78
2022-12-23T13:31:35.615Z,3.80
2022-12-23T13:34:21.477Z,3.82
2022-12-23T13:36:57.192Z,3.81
2022-12-23T13:39:29.760Z,3.83
2022-12-23T13:42:05.087Z,3.85
2022-12-23T13:44:35.096Z,3.86
2022-12-23T13:47:23.281Z,3.88
2022-12-23T13:50:08.312Z,3.89
2022-12-23T13:53:00.367Z,3.91
2022-12-23T13:56:08.179Z,3.91
2022-12-23T13:58:35.512Z,3.94
2022-12-23T14:01:31.863Z,3.95
2022-12-23T14:04:56.438Z,3.97
2022-12-23T14:07:23.753Z,3.97
2022-12-23T14:09:59.443Z,3.96
2022-12-23T14:12:34.401Z,3.96
2022-12-23T14:15:31.949Z,3.99
2022-12-23T14:18:09.820Z,3.98
2022-12-23T14:20:45.306Z,3.99
2022-12-23T14:23:33.423Z,3.98
2022-12-23T14:26:06.071Z,3.98
2022-12-23T14:29:02.980Z,3.99
2022-12-23T14:31:31.346Z,4.00
2022-12-23T14:34:31.289Z,4.00
2022-12-23T14:37:15.890Z,3.97
2022-12-23T14:39:43.439Z,3.95
2022-12-23T14:42:14.966Z,3.95
2022-12-23T14:44:46.374Z,3.95
2022-12-23T14:47:36.082Z,3.96
2022-12-23T14:50:37.017Z,3.99
2022-12-23T14:53:29.509Z,4.00
2022-12-23T14:56:08.162Z,4.00
2022-12-23T14:58:45.424Z,4.01
2022-12-23T15:01:23.946Z,4.02
2022-12-23T15:03:57.568Z,4.02
2022-12-23T15:06:43.259Z,4.02
2022-12-23T15:09:20.336Z,4.02
2022-12-23T15:11:47.260Z,4.03
2022-12-23T15:14:23.425Z,4.03
2022-12-23T15:16:50.048Z,4.03
2022-12-23T15:19:23.545Z,4.03
2022-12-23T15:21:59.613Z,4.04
2022-12-23T15:24:29.860Z,4.05
2022-12-23T15:27:26.093Z,4.05
2022-12-23T15:29:49.500Z,4.05
2022-12-23T15:32:19.233Z,4.03
2022-12-23T15:34:48.246Z,4.04
2022-12-23T15:37:24.731Z,4.04
2022-12-23T15:39:57.225Z,4.05
2022-12-23T15:42:38.526Z,4.04
2022-12-23T15:45:26.047Z,4.02
2022-12-23T15:47:52.754Z,4.02
2022-12-23T15:50:19.733Z,4.03
2022-12-23T15:52:48.895Z,4.02
2022-12-23T15:55:27.806Z,4.02
2022-12-23T15:57:54.915Z,4.02
2022-12-23T16:00:50.948Z,4.04
2022-12-23T16:03:25.506Z,4.03
2022-12-23T16:05:52.745Z,4.05
2022-12-23T16:08:30.114Z,4.05
2022-12-23T16:11:17.847Z,4.06
2022-12-23T16:13:58.319Z,4.05
2022-12-23T16:16:41.305Z,4.05
2022-12-23T16:19:37.577Z,4.07
2022-12-23T16:22:28.493Z,4.07
2022-12-23T16:25:10.096Z,4.08
2022-12-23T16:27:40.154Z,4.10
2022-12-23T16:30:34.331Z,4.11
2022-12-23T16:33:06.974Z,4.10
2022-12-23T16:35:42.872Z,4.10
2022-12-23T16:38:22.996Z,4.11
2022-12-23T16:40:51.956Z,4.11
2022-12-23T16:43:19.412Z,4.11
2022-12-23T16:45:50.063Z,4.12
2022-12-23T16:48:24.418Z,4.14
2022-12-23T16:50:52.492Z,4.12
2022-12-23T16:53:19.493Z,4.13
2022-12-23T16:55:52.352Z,4.13
2022-12-23T16:58:23.471Z,4.13
2022-12-23T17:00:51.624Z,4.15
2022-12-23T17:03:19.360Z,4.15
2022-12-23T17:05:47.163Z,4.16
2022-12-23T17:08:13.875Z,4.12
2022-12-23T17:10:42.200Z,4.11
2022-12-23T17:13:11.913Z,4.08
2022-12-23T17:15:38.769Z,4.08
2022-12-23T17:18:12.629Z,4.06
2022-12-23T17:20:39.373Z,4.04
2022-12-23T17:23:06.727Z,4.02
2022-12-23T17:25:33.320Z,4.05
2022-12-23T17:27:59.887Z,4.05
2022-12-23T17:30:26.500Z,4.05
2022-12-23T17:32:58.293Z,4.05
2022-12-23T17:35:26.839Z,4.06
2022-12-23T17:37:53.702Z,4.06
2022-12-23T17:40:20.510Z,4.07
2022-12-23T17:42:47.774Z,4.09
2022-12-23T17:45:27.701Z,4.07
2022-12-23T17:47:54.724Z,4.07
2022-12-23T17:50:22.266Z,4.08
2022-12-23T17:52:49.349Z,4.05
2022-12-23T17:55:19.572Z,4.02
2022-12-23T17:57:48.053Z,4.02
2022-12-23T18:00:25.175Z,3.99
2022-12-23T18:02:56.337Z,3.97
2022-12-23T18:05:31.387Z,3.97
2022-12-23T18:08:00.683Z,3.96
2022-12-23T18:10:30.767Z,3.98
2022-12-23T18:13:04.892Z,3.98
2022-12-23T18:15:40.698Z,3.99
2022-12-23T18:18:20.456Z,4.02
2022-12-23T18:20:52.851Z,4.03
2022-12-23T18:23:25.006Z,4.05
2022-12-23T18:25:51.665Z,4.04
2022-12-23T18:28:18.245Z,4.04
2022-12-23T18:30:45.038Z,4.01
2022-12-23T18:33:13.274Z,4.01
2022-12-23T18:35:44.055Z,4.02
2022-12-23T18:38:11.912Z,3.99
2022-12-23T18:40:40.094Z,3.97
2022-12-23T18:43:07.127Z,3.94
2022-12-23T18:45:46.556Z,3.94
2022-12-23T18:48:15.799Z,3.94
2022-12-23T18:50:44.396Z,3.91
2022-12-23T18:53:23.328Z,3.90
2022-12-23T18:55:51.888Z,3.90
2022-12-23T18:58:19.085Z,3.90
2022-12-23T19:00:47.026Z,3.90
2022-12-23T19:03:30.247Z,3.92
2022-12-23T19:06:01.773Z,3.88
2022-12-23T19:08:28.349Z,3.86
2022-12-23T19:10:55.736Z,3.86
2022-12-23T19:13:22.586Z,3.87
2022-12-23T19:15:49.470Z,3.88
2022-12-23T19:18:18.588Z,3.91
2022-12-23T19:20:46.299Z,3.91
2022-12-23T19:23:13.908Z,3.89
2022-12-23T19:25:42.474Z,3.90
2022-12-23T19:28:09.703Z,3.90
2022-12-23T19:30:36.601Z,3.88
2022-12-23T19:33:03.255Z,3.88
2022-12-23T19:35:29.881Z,3.87
2022-12-23T19:37:58.783Z,3.88
2022-12-23T19:40:25.421Z,3.89
2022-12-23T19:42:51.957Z,3.88
2022-12-23T19:45:18.581Z,3.90
2022-12-23T19:47:45.144Z,3.89
2022-12-23T19:50:12.458Z,3.86
2022-12-23T19:52:39.070Z,3.85
2022-12-23T19:55:06.066Z,3.86
2022-12-23T19:57:33.423Z,3.83
2022-12-23T20:00:01.830Z,3.83
2022-12-23T20:02:28.753Z,3.82
2022-12-23T20:04:55.342Z,3.81
2022-12-23T20:07:21.960Z,3.81
2022-12-23T20:09:48.548Z,3.81
2022-12-23T20:12:15.233Z,3.82
2022-12-23T20:14:41.814Z,3.82
2022-12-23T20:17:08.375Z,3.80
2022-12-23T20:19:39.142Z,3.77
2022-12-23T20:22:10.378Z,3.78
2022-12-23T20:24:37.177Z,3.76
2022-12-23T20:27:07.941Z,3.75
2022-12-23T20:29:38.170Z,3.78
2022-12-23T20:32:04.951Z,3.78
2022-12-23T20:34:36.668Z,3.79
2022-12-23T20:37:06.475Z,3.81
2022-12-23T20:39:33.278Z,3.83
2022-12-23T20:41:59.869Z,3.83
2022-12-23T20:44:35.805Z,3.82
2022-12-23T20:47:05.567Z,3.79
2022-12-23T20:49:33.842Z,3.75
2022-12-23T20:52:00.664Z,3.76
2022-12-23T20:54:32.538Z,3.79
2022-12-23T20:56:59.583Z,3.78
2022-12-23T20:59:26.165Z,3.76
2022-12-23T21:01:52.870Z,3.66
2022-12-23T21:04:20.511Z,3.69
2022-12-23T21:06:47.166Z,3.71
2022-12-23T21:09:15.574Z,3.73
2022-12-23T21:11:45.230Z,3.70
2022-12-23T21:14:13.170Z,3.70
2022-12-23T21:16:40.408Z,3.72
2022-12-23T21:19:09.390Z,3.77
2022-12-23T21:21:35.974Z,3.78
2022-12-23T21:24:04.773Z,3.79
2022-12-23T21:26:33.774Z,3.80
2022-12-23T21:29:02.010Z,3.79
2022-12-23T21:31:30.417Z,3.80
2022-12-23T21:33:58.671Z,3.79
2022-12-23T21:36:27.780Z,3.78
2022-12-23T21:38:54.795Z,3.75
2022-12-23T21:41:28.496Z,3.74
2022-12-23T21:43:59.748Z,3.74
2022-12-23T21:46:27.702Z,3.76
2022-12-23T21:48:55.776Z,3.77
2022-12-23T21:51:41.897Z,3.75
2022-12-23T21:54:10.857Z,3.76
2022-12-23T21:56:37.962Z,3.74
2022-12-23T21:59:08.402Z,3.75
2022-12-23T22:01:35.266Z,3.76
2022-12-23T22:04:02.349Z,3.74
2022-12-23T22:06:36.551Z,3.73
2022-12-23T22:09:05.132Z,3.72
2022-12-23T22:11:33.674Z,3.71
2022-12-23T22:14:02.238Z,3.72
2022-12-23T22:16:30.793Z,3.73
2022-12-23T22:18:59.293Z,3.74
2022-12-23T22:21:27.699Z,3.74
2022-12-23T22:23:55.396Z,3.74
2022-12-23T22:26:27.404Z,3.73
2022-12-23T22:28:59.350Z,3.76
2022-12-23T22:31:36.709Z,3.78
2022-12-23T22:34:04.645Z,3.80
2022-12-23T22:36:31.491Z,3.81
2022-12-23T22:38:59.845Z,3.79
2022-12-23T22:41:30.497Z,3.78
2022-12-23T22:43:58.165Z,3.79
2022-12-23T22:46:26.046Z,3.78
2022-12-23T22:48:53.451Z,3.75
2022-12-23T22:51:23.247Z,3.73
2022-12-23T22:53:50.007Z,3.71
2022-12-23T22:56:17.994Z,3.71
2022-12-23T22:58:44.620Z,3.70
2022-12-23T23:01:32.273Z,3.72
2022-12-23T23:04:01.107Z,3.73
2022-12-23T23:06:39.399Z,3.74
2022-12-23T23:09:08.217Z,3.75
2022-12-23T23:11:35.099Z,3.72
2022-12-23T23:14:01.872Z,3.75
2022-12-23T23:16:28.562Z,3.76
2022-12-23T23:18:55.312Z,3.75
2022-12-23T23:21:22.387Z,3.73
2022-12-23T23:23:49.845Z,3.66
2022-12-23T23:26:17.420Z,3.65
2022-12-23T23:28:44.501Z,3.66
2022-12-23T23:33:58.804Z,3.66
2022-12-23T23:36:25.487Z,3.68
2022-12-23T23:38:52.241Z,3.67
2022-12-23T23:41:22.901Z,3.69
2022-12-23T23:43:50.597Z,3.66
2022-12-23T23:46:17.285Z,3.65
2022-12-23T23:48:43.904Z,3.68
2022-12-23T23:51:10.680Z,3.68
2022-12-23T23:53:37.252Z,3.71
2022-12-23T23:56:06.474Z,3.72
2022-12-23T23:58:34.732Z,3.73
